YVP weather

Kuujjuaq Airport
Kuujjuaq, Quebec, Canada

Public forecast

Using degrees Celsius for public forecast. Weather courtesy of forecast.io.

Current aviation weather report (METAR) for Kuujjuaq Airport

Retrieved 2020/06/05 23:00 UTC (15 minutes ago):

CYVP 052300Z 33010KT 15SM -RA BKN012 OVC017 03/02 A2968 RMK SF7SC1 SLP056

Aviation forecast (TAF) for Kuujjuaq Airport

Retrieved 2020/06/05 18:00 UTC (5 hours ago):

TAF CYVP 051738Z 0518/0606 35012G22KT 3SM -SNRA BR OVC006 TEMPO 0518/0522 P6SM -RA SCT006 OVC015 PROB30 0518/0522 OVC005 FM052200 33010G20KT 2SM -SNRA BR OVC008 TEMPO 0522/0606 6SM -RASN OVC015 RMK NXT FCST BY 060000Z